Aérodrome :
LOGIN :

S'inscrire | Disclaimer

   EN    FR    IT 

 










Légende :    VFR   VFR Marginal   IFR   IFR Intensif   IFR Très Intensif
Visi : 
Plafond : 
>= 8 km
>= 3000ft
5 à 8 km
1000 à 3000 ft
1500m à 5 km
500 à 1000 ft
800 à 1500m
200 à 500 ft
< 800m
< 200 ft
Symboles :   Orages  Brouillard  Fortes neiges  Fortes précipitations  Vent > 20 kt
SIGMETs :   Divers  Orages  Givrage  Turbulence  Onde Orograph.  Cendres Volcan.






- Altitude de l'aérodrome : 650 ft
- Code IATA : ZJI


LSZL - Locarno

DERNIER METAR :
  • 040850Z AUTO 08003KT 8000NDV RA FEW029 BKN035 OVC042 05/04 Q1013 RMK

METARs EXPIRÉS :
  • 040820Z AUTO 06002KT 3900NDV RA FEW029 BKN035 OVC043 05/04 Q1013 RMK
  • 040750Z AUTO 07003KT 5000NDV RA SCT025 BKN030 OVC041 04/04 Q1013 RMK
  • 040720Z AUTO 07004KT 5000NDV RA SCT026 BKN034 BKN044 04/04 Q1013 RMK
  • 040650Z AUTO 09003KT 7000NDV RA FEW024 SCT036 OVC043 04/04 Q1013 RMK
  • 040620Z AUTO 06003KT 030V090 7000NDV -RA FEW025 BKN035 BKN042 04/04 Q1013 RMK
  • 040550Z AUTO 05003KT 360V080 8000NDV -RA FEW026 BKN034 04/04 Q1013 RMK

TAF TAF LSZL
Valide du 04 à 06h jusqu'au 04 à 15h UTC


040525Z 0406/0415 05003KT 9999 -RA FEW015 BKN040
TEMPO 0406/0415 4000 RA



MET'MAP, la Météo Aéronautique d'un coup d'oeil ! - Copyright ORBIFLY Décembre 2007 - Disclaimer

ORBIFLY MET'MAP TEAM :

Programmation & Développement : Alexandra Zaïnal
Sur une idée originale de : Baudouin d'Aumeries
Soutien technique & logistique : Manuel Goepfert
Assistance : Marc-Olivier Méhu




SOURCES & CREDITS :

   NOAA